Time;durP1;ratioP1;P1;durP2;ratioP2;P2;SDS_P1;SDS_P2;PMS_P1;PMS_P2;Temp;Humidity;BMP_temperature;BMP_pressure;BME280_temperature;BME280_humidity;BME280_pressure;Samples;Min_cycle;Max_cycle;Signal;HPM_P1;HPM_P2
2022/01/02 00:01:00;;;;;;;;;;;1.40;99.90;;;;;;5053072;28;19911;-74
2022/01/02 00:03:29;;;;;;;;;;;1.50;99.90;;;;;;5053871;28;19904;-75
2022/01/02 00:05:56;;;;;;;;;;;1.50;99.90;;;;;;5036758;28;19915;-74
2022/01/02 00:08:23;;;;;;;;;;;1.50;99.90;;;;;;5053610;28;19912;-73
2022/01/02 00:10:50;;;;;;;;;;;1.50;99.90;;;;;;5071161;28;19908;-74
2022/01/02 00:13:21;;;;;;;;;;;1.50;99.90;;;;;;5053536;28;20342;-74
2022/01/02 00:15:47;;;;;;;;;;;1.50;99.90;;;;;;5071110;28;20003;-74
2022/01/02 00:18:13;;;;;;;;;;;1.40;99.90;;;;;;5053160;28;19909;-74
2022/01/02 00:20:48;;;;;;;;;;;1.40;99.90;;;;;;5052693;28;19913;-74
2022/01/02 00:23:20;;;;;;;;;;;1.40;99.90;;;;;;5053107;28;19920;-74
2022/01/02 00:25:48;;;;;;;;;;;1.40;99.90;;;;;;5053184;28;19970;-73
2022/01/02 00:28:15;;;;;;;;;;;1.40;99.90;;;;;;5052654;28;20394;-75
2022/01/02 00:30:43;;;;;;;;;;;1.40;99.90;;;;;;5070484;28;19909;-75
2022/01/02 00:33:09;;;;;;;;;;;1.40;99.90;;;;;;5052893;28;20364;-74
2022/01/02 00:35:35;;;;;;;;;;;1.40;99.90;;;;;;5052673;28;19912;-74
2022/01/02 00:38:00;;;;;;;;;;;1.40;99.90;;;;;;5070884;28;19908;-75
2022/01/02 00:40:26;;;;;;;;;;;1.40;99.90;;;;;;5051857;28;19909;-73
2022/01/02 00:42:55;;;;;;;;;;;1.40;99.90;;;;;;5052532;28;19958;-74
2022/01/02 00:45:27;;;;;;;;;;;1.40;99.90;;;;;;5052526;28;19912;-74
2022/01/02 00:48:13;;;;;;;;;;;1.30;99.90;;;;;;5071139;28;19912;-74
2022/01/02 00:50:49;;;;;;;;;;;1.40;99.90;;;;;;5070228;28;19908;-74
2022/01/02 00:53:17;;;;;;;;;;;1.30;99.90;;;;;;5070747;28;20513;-74
2022/01/02 00:55:43;;;;;;;;;;;1.30;99.90;;;;;;5070099;28;19918;-74
2022/01/02 00:58:12;;;;;;;;;;;1.30;99.90;;;;;;5052540;28;20592;-74
2022/01/02 01:00:40;;;;;;;;;;;1.30;99.90;;;;;;5069935;28;19911;-74
2022/01/02 01:03:07;;;;;;;;;;;1.30;99.90;;;;;;5070747;28;20047;-74
2022/01/02 01:05:34;;;;;;;;;;;1.30;99.90;;;;;;5070240;28;19961;-74
2022/01/02 01:08:06;;;;;;;;;;;1.30;99.90;;;;;;5070270;28;20262;-74
2022/01/02 01:10:33;;;;;;;;;;;1.30;99.90;;;;;;5069492;28;19912;-74
2022/01/02 01:13:01;;;;;;;;;;;1.30;99.90;;;;;;5070721;28;19908;-74
2022/01/02 01:15:28;;;;;;;;;;;1.30;99.90;;;;;;5051438;28;19920;-74
2022/01/02 01:17:56;;;;;;;;;;;1.30;99.90;;;;;;5052262;28;19912;-74
2022/01/02 01:20:22;;;;;;;;;;;1.20;99.90;;;;;;5050984;28;19939;-74
2022/01/02 01:22:49;;;;;;;;;;;1.20;99.90;;;;;;5052064;28;19977;-75
2022/01/02 01:25:17;;;;;;;;;;;1.20;99.90;;;;;;5051845;28;19909;-73
2022/01/02 01:27:43;;;;;;;;;;;1.20;99.90;;;;;;5070417;28;19912;-74
2022/01/02 01:30:09;;;;;;;;;;;1.20;99.90;;;;;;5069517;28;19915;-74
2022/01/02 01:32:35;;;;;;;;;;;1.20;99.90;;;;;;5051393;28;19989;-74
2022/01/02 01:35:02;;;;;;;;;;;1.20;99.90;;;;;;5051793;28;19916;-74
2022/01/02 01:37:28;;;;;;;;;;;1.20;99.90;;;;;;5051659;28;20197;-74
2022/01/02 01:39:54;;;;;;;;;;;1.30;99.90;;;;;;5069756;28;19916;-74
2022/01/02 01:42:30;;;;;;;;;;;1.30;99.90;;;;;;5051598;28;19917;-74
2022/01/02 01:47:40;;;;;;;;;;;1.40;99.90;;;;;;5050291;28;20359;-74
2022/01/02 01:50:06;;;;;;;;;;;1.30;99.90;;;;;;5049374;28;19909;-74
2022/01/02 01:52:31;;;;;;;;;;;1.40;99.90;;;;;;5069237;28;20256;-74
2022/01/02 01:54:57;;;;;;;;;;;1.30;99.90;;;;;;5070047;28;19912;-74
2022/01/02 01:57:22;;;;;;;;;;;1.30;99.90;;;;;;5070243;28;20343;-74
2022/01/02 01:59:48;;;;;;;;;;;1.40;99.90;;;;;;5051482;28;20371;-75
2022/01/02 02:02:17;;;;;;;;;;;1.80;99.90;;;;;;5051383;28;19909;-75
2022/01/02 02:04:43;;;;;;;;;;;1.40;99.90;;;;;;5069804;28;19961;-75
2022/01/02 02:07:08;;;;;;;;;;;1.40;99.90;;;;;;5069585;28;19908;-75
2022/01/02 02:09:52;;;;;;;;;;;1.40;99.90;;;;;;5069241;28;19915;-74
2022/01/02 02:12:18;;;;;;;;;;;1.40;99.90;;;;;;5069754;28;19947;-74
2022/01/02 02:14:43;;;;;;;;;;;1.30;99.90;;;;;;5069804;28;19955;-74
2022/01/02 02:17:09;;;;;;;;;;;1.30;99.90;;;;;;5051501;28;19978;-75
2022/01/02 02:19:34;;;;;;;;;;;1.20;99.90;;;;;;5051388;28;19915;-74
2022/01/02 02:22:02;;;;;;;;;;;1.20;99.90;;;;;;5054228;28;19974;-74
2022/01/02 02:24:27;;;;;;;;;;;1.10;99.90;;;;;;5049687;28;19962;-74
2022/01/02 02:26:53;;;;;;;;;;;1.10;99.90;;;;;;5066141;28;19920;-74
2022/01/02 02:29:18;;;;;;;;;;;1.10;99.90;;;;;;5055127;28;19912;-74
2022/01/02 02:31:44;;;;;;;;;;;1.10;99.90;;;;;;5054846;28;20043;-74
2022/01/02 02:34:10;;;;;;;;;;;1.00;99.90;;;;;;5073540;28;20426;-73
2022/01/02 02:36:35;;;;;;;;;;;1.00;99.90;;;;;;5073547;28;19920;-74
2022/01/02 02:39:01;;;;;;;;;;;1.10;99.90;;;;;;5054920;28;20392;-75
2022/01/02 02:41:32;;;;;;;;;;;1.00;99.90;;;;;;5044000;28;19923;-75
2022/01/02 02:44:32;;;;;;;;;;;1.00;99.90;;;;;;5052957;28;20051;-75
2022/01/02 02:49:27;;;;;;;;;;;1.00;99.90;;;;;;5072490;28;19961;-73
2022/01/02 02:51:57;;;;;;;;;;;1.00;99.90;;;;;;5054744;28;19924;-74
2022/01/02 02:54:25;;;;;;;;;;;1.00;99.90;;;;;;5072994;28;20011;-75
2022/01/02 02:57:01;;;;;;;;;;;1.10;99.90;;;;;;5072786;28;19954;-74
2022/01/02 02:59:27;;;;;;;;;;;1.10;99.90;;;;;;5072322;28;20418;-75
2022/01/02 03:01:54;;;;;;;;;;;1.10;99.90;;;;;;5072858;28;19916;-75
2022/01/02 03:04:20;;;;;;;;;;;1.10;99.90;;;;;;5054350;28;19912;-74
2022/01/02 03:06:45;;;;;;;;;;;1.10;99.90;;;;;;5054061;28;19930;-75
2022/01/02 03:09:11;;;;;;;;;;;1.10;99.90;;;;;;5072329;28;19974;-74
2022/01/02 03:11:39;;;;;;;;;;;1.00;99.90;;;;;;5054195;28;20368;-75
2022/01/02 03:14:06;;;;;;;;;;;1.00;99.90;;;;;;5072345;28;20261;-75
2022/01/02 03:16:32;;;;;;;;;;;0.90;99.90;;;;;;5054035;28;19919;-74
2022/01/02 03:18:58;;;;;;;;;;;0.90;99.90;;;;;;5072037;28;19909;-74
2022/01/02 03:21:24;;;;;;;;;;;0.80;99.90;;;;;;5072404;28;19912;-74
2022/01/02 03:23:49;;;;;;;;;;;0.90;99.90;;;;;;5072111;28;19916;-75
2022/01/02 03:26:15;;;;;;;;;;;0.90;99.90;;;;;;5053616;28;19908;-74
2022/01/02 03:28:41;;;;;;;;;;;0.80;99.90;;;;;;5072162;28;19912;-74
2022/01/02 03:31:06;;;;;;;;;;;0.80;99.90;;;;;;5053879;28;19912;-75
2022/01/02 03:33:32;;;;;;;;;;;0.70;99.90;;;;;;5054338;28;20360;-74
2022/01/02 03:35:58;;;;;;;;;;;0.70;99.90;;;;;;5071985;28;19908;-75
2022/01/02 03:38:24;;;;;;;;;;;0.70;99.90;;;;;;5053671;28;20425;-74
2022/01/02 03:40:49;;;;;;;;;;;0.50;99.90;;;;;;5053710;28;19912;-74
2022/01/02 03:43:15;;;;;;;;;;;0.50;99.90;;;;;;5072029;28;19916;-74
2022/01/02 03:45:41;;;;;;;;;;;0.40;99.90;;;;;;5071282;28;20352;-75
2022/01/02 03:48:06;;;;;;;;;;;0.40;99.90;;;;;;5072482;28;20324;-75
2022/01/02 03:50:32;;;;;;;;;;;0.30;99.90;;;;;;5053083;28;19955;-74
2022/01/02 03:52:57;;;;;;;;;;;0.30;99.90;;;;;;5072177;28;19905;-75
2022/01/02 03:55:23;;;;;;;;;;;0.20;99.90;;;;;;5071431;28;19919;-74
2022/01/02 03:57:49;;;;;;;;;;;0.20;99.90;;;;;;5053671;28;20357;-74
2022/01/02 04:00:15;;;;;;;;;;;0.20;99.90;;;;;;5071317;28;19920;-75
2022/01/02 04:02:41;;;;;;;;;;;0.20;99.90;;;;;;5072141;28;19905;-75
2022/01/02 04:05:10;;;;;;;;;;;0.10;99.90;;;;;;5071227;28;20253;-74
2022/01/02 04:07:36;;;;;;;;;;;0.10;99.90;;;;;;5072255;28;19908;-74
2022/01/02 04:10:05;;;;;;;;;;;0.10;99.90;;;;;;5071481;28;19962;-74
2022/01/02 04:12:31;;;;;;;;;;;0.10;99.90;;;;;;5053578;28;20185;-75
2022/01/02 04:14:57;;;;;;;;;;;0.00;99.90;;;;;;5053187;28;19920;-75
2022/01/02 04:17:23;;;;;;;;;;;0.00;99.90;;;;;;5053421;28;19965;-74
2022/01/02 04:19:49;;;;;;;;;;;-0.10;99.90;;;;;;5053296;28;19916;-75
2022/01/02 04:22:15;;;;;;;;;;;-0.10;99.90;;;;;;5053059;28;19912;-74
2022/01/02 04:24:41;;;;;;;;;;;-0.10;99.90;;;;;;5071245;28;19961;-74
2022/01/02 04:27:06;;;;;;;;;;;-0.10;99.90;;;;;;5070777;28;19904;-74
2022/01/02 04:29:32;;;;;;;;;;;-0.10;99.90;;;;;;5070679;28;19919;-75
2022/01/02 04:31:57;;;;;;;;;;;-0.10;99.90;;;;;;5052668;28;19904;-74
2022/01/02 04:34:23;;;;;;;;;;;-0.10;99.90;;;;;;5070874;28;19916;-74
2022/01/02 04:36:48;;;;;;;;;;;-0.20;99.90;;;;;;5052576;28;20340;-75
2022/01/02 04:39:14;;;;;;;;;;;-0.10;99.90;;;;;;5070885;28;20423;-75
2022/01/02 04:41:40;;;;;;;;;;;-0.10;99.90;;;;;;5057825;28;20400;-74
2022/01/02 04:44:05;;;;;;;;;;;-0.20;99.90;;;;;;5050439;28;19908;-74
2022/01/02 04:46:31;;;;;;;;;;;-0.20;99.90;;;;;;5044380;28;20350;-74
2022/01/02 04:48:56;;;;;;;;;;;-0.20;99.90;;;;;;5051926;28;19958;-74
2022/01/02 04:51:22;;;;;;;;;;;-0.30;99.90;;;;;;5070332;28;20279;-74
2022/01/02 04:53:49;;;;;;;;;;;-0.30;99.90;;;;;;5070590;28;19915;-74
2022/01/02 04:56:17;;;;;;;;;;;-0.30;99.90;;;;;;5070338;28;19916;-74
2022/01/02 04:58:43;;;;;;;;;;;-0.30;99.90;;;;;;5052730;28;20314;-74
2022/01/02 05:01:14;;;;;;;;;;;-0.30;99.90;;;;;;5070380;28;19927;-75
2022/01/02 05:03:39;;;;;;;;;;;-0.30;99.90;;;;;;5070795;28;20003;-74
2022/01/02 05:06:06;;;;;;;;;;;-0.30;99.90;;;;;;5069984;28;20361;-75
2022/01/02 05:08:32;;;;;;;;;;;-0.30;99.90;;;;;;5052091;28;19919;-74
2022/01/02 05:10:57;;;;;;;;;;;-0.30;99.90;;;;;;5052364;28;20011;-74
2022/01/02 05:13:23;;;;;;;;;;;-0.30;99.90;;;;;;5052271;28;19913;-75
2022/01/02 05:15:48;;;;;;;;;;;-0.30;99.90;;;;;;5070071;28;19944;-74
2022/01/02 05:18:14;;;;;;;;;;;-0.30;99.90;;;;;;5070264;28;20426;-74
2022/01/02 05:20:44;;;;;;;;;;;-0.30;99.90;;;;;;5070006;28;19909;-75
2022/01/02 05:23:09;;;;;;;;;;;-0.30;99.90;;;;;;5052324;28;19938;-75
2022/01/02 05:25:35;;;;;;;;;;;-0.40;99.90;;;;;;5051736;28;19904;-74
2022/01/02 05:28:01;;;;;;;;;;;-0.40;99.90;;;;;;5052673;28;19912;-74
2022/01/02 05:30:26;;;;;;;;;;;-0.40;99.90;;;;;;5070168;28;19961;-75
2022/01/02 05:32:52;;;;;;;;;;;-0.50;99.90;;;;;;5052269;28;19930;-74
2022/01/02 05:35:17;;;;;;;;;;;-0.50;99.90;;;;;;5069940;28;19912;-75
2022/01/02 05:37:43;;;;;;;;;;;-0.50;99.90;;;;;;5070338;28;19913;-74
2022/01/02 05:40:09;;;;;;;;;;;-0.50;99.90;;;;;;5051493;28;19913;-74
2022/01/02 05:42:34;;;;;;;;;;;-0.50;99.90;;;;;;5070595;28;19924;-74
2022/01/02 05:45:00;;;;;;;;;;;-0.60;99.90;;;;;;5070188;28;19912;-74
2022/01/02 05:47:25;;;;;;;;;;;-0.60;99.90;;;;;;5051757;28;20050;-74
2022/01/02 05:49:51;;;;;;;;;;;0.20;99.90;;;;;;5069636;28;20006;-75
2022/01/02 05:52:16;;;;;;;;;;;-0.50;99.90;;;;;;5069737;28;19931;-74
2022/01/02 05:54:42;;;;;;;;;;;-0.60;99.90;;;;;;5070207;28;19936;-74
2022/01/02 05:57:08;;;;;;;;;;;-0.60;99.90;;;;;;5069853;28;19916;-74
2022/01/02 05:59:35;;;;;;;;;;;-0.60;99.90;;;;;;5070030;28;20326;-74
2022/01/02 06:02:00;;;;;;;;;;;-0.60;99.90;;;;;;5073476;28;20343;-75
2022/01/02 06:04:27;;;;;;;;;;;-0.70;99.90;;;;;;5073938;28;19915;-75
2022/01/02 06:06:53;;;;;;;;;;;-0.70;99.90;;;;;;5073491;28;19919;-74
2022/01/02 06:09:18;;;;;;;;;;;-0.70;99.90;;;;;;5073508;28;19908;-75
2022/01/02 06:11:44;;;;;;;;;;;-0.70;99.90;;;;;;5055645;28;19943;-75
2022/01/02 06:14:09;;;;;;;;;;;-0.80;99.90;;;;;;5073780;28;19908;-74
2022/01/02 06:16:35;;;;;;;;;;;-0.80;99.90;;;;;;5073064;28;19969;-73
2022/01/02 06:19:00;;;;;;;;;;;-0.80;99.90;;;;;;5055255;28;19939;-74
2022/01/02 06:21:26;;;;;;;;;;;-0.80;99.90;;;;;;5062255;28;19916;-73
2022/01/02 06:23:52;;;;;;;;;;;-0.80;99.90;;;;;;5035434;28;19944;-74
2022/01/02 06:26:17;;;;;;;;;;;-0.80;99.90;;;;;;5062883;28;19915;-74
2022/01/02 06:28:43;;;;;;;;;;;-0.70;99.90;;;;;;5055070;28;20052;-73
2022/01/02 06:31:09;;;;;;;;;;;-0.70;99.90;;;;;;5073697;28;19912;-74
2022/01/02 06:33:35;;;;;;;;;;;-0.70;99.90;;;;;;5073315;28;19912;-74
2022/01/02 06:36:00;;;;;;;;;;;-0.70;99.90;;;;;;5072769;28;19909;-74
2022/01/02 06:38:26;;;;;;;;;;;-0.80;99.90;;;;;;5054446;28;19965;-74
2022/01/02 06:40:51;;;;;;;;;;;-0.80;99.90;;;;;;5048647;28;19935;-74
2022/01/02 06:43:17;;;;;;;;;;;-0.90;99.90;;;;;;5053141;28;19943;-73
2022/01/02 06:45:46;;;;;;;;;;;-0.90;99.90;;;;;;5057282;28;19904;-74
2022/01/02 06:48:12;;;;;;;;;;;-1.00;99.90;;;;;;5072856;28;20022;-74
2022/01/02 06:50:39;;;;;;;;;;;-1.00;99.90;;;;;;5054831;28;19920;-74
2022/01/02 06:53:05;;;;;;;;;;;-1.20;99.90;;;;;;5073614;28;20004;-75
2022/01/02 06:55:30;;;;;;;;;;;-1.30;99.90;;;;;;5054518;28;20296;-75
2022/01/02 06:57:56;;;;;;;;;;;-1.30;99.90;;;;;;5054585;28;19913;-75
2022/01/02 07:00:22;;;;;;;;;;;-1.30;99.90;;;;;;5070539;28;19905;-74
2022/01/02 07:02:47;;;;;;;;;;;-1.30;99.90;;;;;;5053264;28;19956;-73
2022/01/02 07:05:13;;;;;;;;;;;-1.20;99.90;;;;;;5053371;28;20410;-74
2022/01/02 07:07:42;;;;;;;;;;;-0.50;99.90;;;;;;5072633;28;19923;-74
2022/01/02 07:10:09;;;;;;;;;;;1.00;99.90;;;;;;5072351;28;19905;-74
2022/01/02 07:12:36;;;;;;;;;;;1.60;99.90;;;;;;5072244;28;19918;-75
2022/01/02 07:15:02;;;;;;;;;;;1.70;99.90;;;;;;5073070;28;19912;-75
2022/01/02 07:17:27;;;;;;;;;;;2.40;99.90;;;;;;5072700;28;19912;-75
2022/01/02 07:19:53;;;;;;;;;;;3.70;99.90;;;;;;5072480;28;19905;-74
2022/01/02 07:22:19;;;;;;;;;;;3.70;99.90;;;;;;5072488;28;19916;-74
2022/01/02 07:24:50;;;;;;;;;;;2.80;99.90;;;;;;5054565;28;19904;-74
2022/01/02 07:27:16;;;;;;;;;;;1.90;99.90;;;;;;5072166;28;20256;-75
2022/01/02 07:29:41;;;;;;;;;;;1.50;99.90;;;;;;5053814;28;19904;-75
2022/01/02 07:32:07;;;;;;;;;;;1.90;99.90;;;;;;5054303;28;19916;-76
2022/01/02 07:34:33;;;;;;;;;;;1.90;99.90;;;;;;5072228;28;20439;-75
2022/01/02 07:36:58;;;;;;;;;;;2.40;99.90;;;;;;5072042;28;20263;-75
2022/01/02 07:39:24;;;;;;;;;;;3.80;99.90;;;;;;5053912;28;20241;-75
2022/01/02 07:41:49;;;;;;;;;;;5.30;99.90;;;;;;5057677;28;19920;-74
2022/01/02 07:44:15;;;;;;;;;;;6.00;99.90;;;;;;5052369;28;19999;-74
2022/01/02 07:46:40;;;;;;;;;;;6.00;99.90;;;;;;5064347;28;19909;-74
2022/01/02 07:49:06;;;;;;;;;;;5.70;99.90;;;;;;5071794;28;20007;-74
2022/01/02 07:51:32;;;;;;;;;;;5.00;99.90;;;;;;5072162;28;19919;-74
2022/01/02 07:53:58;;;;;;;;;;;4.40;99.90;;;;;;5053926;28;19938;-74
2022/01/02 07:56:24;;;;;;;;;;;4.70;99.90;;;;;;5071619;28;19966;-74
2022/01/02 07:58:50;;;;;;;;;;;5.20;99.90;;;;;;5053636;28;19908;-75
2022/01/02 08:01:16;;;;;;;;;;;5.70;99.90;;;;;;5053402;28;20244;-75
2022/01/02 08:03:41;;;;;;;;;;;6.20;99.90;;;;;;5053868;28;19930;-74
2022/01/02 08:06:07;;;;;;;;;;;5.80;99.90;;;;;;5071706;28;19908;-75
2022/01/02 08:08:32;;;;;;;;;;;5.80;99.90;;;;;;5053165;28;19912;-73
2022/01/02 08:10:58;;;;;;;;;;;6.00;99.90;;;;;;5071253;28;20280;-74
2022/01/02 08:13:23;;;;;;;;;;;6.20;99.80;;;;;;5071654;28;19916;-75
2022/01/02 08:15:49;;;;;;;;;;;6.40;98.90;;;;;;5071181;28;19912;-74
2022/01/02 08:18:15;;;;;;;;;;;5.60;99.90;;;;;;5071275;28;19909;-74
2022/01/02 08:20:41;;;;;;;;;;;5.50;99.50;;;;;;5071176;28;19908;-73
2022/01/02 08:23:07;;;;;;;;;;;5.40;99.70;;;;;;5052916;28;19908;-74
2022/01/02 08:25:33;;;;;;;;;;;5.70;99.90;;;;;;5070245;28;19912;-74
2022/01/02 08:27:58;;;;;;;;;;;5.60;99.60;;;;;;5071258;28;20243;-74
2022/01/02 08:30:24;;;;;;;;;;;5.30;99.90;;;;;;5070317;28;20011;-74
2022/01/02 08:32:49;;;;;;;;;;;5.10;98.70;;;;;;5071672;28;19908;-74
2022/01/02 08:35:15;;;;;;;;;;;4.70;99.90;;;;;;5071201;28;20358;-74
2022/01/02 08:37:41;;;;;;;;;;;4.40;99.90;;;;;;5071126;28;20474;-74
2022/01/02 08:40:07;;;;;;;;;;;4.20;99.90;;;;;;5052287;28;19920;-74
2022/01/02 08:42:33;;;;;;;;;;;4.10;99.70;;;;;;5049089;28;20190;-74
2022/01/02 08:44:58;;;;;;;;;;;4.00;99.90;;;;;;5051225;28;20009;-75
2022/01/02 08:47:24;;;;;;;;;;;4.00;99.90;;;;;;5049880;28;19923;-74
2022/01/02 08:49:49;;;;;;;;;;;4.20;99.90;;;;;;5050570;28;19936;-74
2022/01/02 08:52:15;;;;;;;;;;;4.00;99.90;;;;;;5050856;28;20395;-75
2022/01/02 08:54:40;;;;;;;;;;;4.00;99.90;;;;;;5050999;28;19905;-74
2022/01/02 08:57:06;;;;;;;;;;;4.10;99.90;;;;;;5050139;28;19921;-74
2022/01/02 08:59:32;;;;;;;;;;;4.10;99.50;;;;;;5050174;28;20280;-74
2022/01/02 09:01:57;;;;;;;;;;;4.00;99.90;;;;;;5050578;28;19913;-75
2022/01/02 09:04:23;;;;;;;;;;;4.10;98.60;;;;;;5049114;28;19961;-75
2022/01/02 09:06:49;;;;;;;;;;;4.00;98.30;;;;;;5036477;28;19913;-74
2022/01/02 09:09:16;;;;;;;;;;;3.70;99.50;;;;;;5030047;28;19936;-74
2022/01/02 09:11:41;;;;;;;;;;;3.70;98.70;;;;;;5041708;28;19958;-75
2022/01/02 09:14:07;;;;;;;;;;;3.80;98.00;;;;;;5050648;28;20364;-75
2022/01/02 09:16:34;;;;;;;;;;;3.90;98.30;;;;;;5049917;28;19921;-74
2022/01/02 09:18:59;;;;;;;;;;;4.00;97.50;;;;;;5050194;28;19905;-74
2022/01/02 09:21:25;;;;;;;;;;;4.10;97.80;;;;;;5050313;28;20133;-76
2022/01/02 09:23:50;;;;;;;;;;;4.10;96.60;;;;;;5050457;28;20479;-74
2022/01/02 09:26:16;;;;;;;;;;;4.00;98.00;;;;;;5048590;28;19913;-74
2022/01/02 09:28:42;;;;;;;;;;;4.10;97.90;;;;;;5050324;28;20357;-73
2022/01/02 09:31:07;;;;;;;;;;;4.20;97.60;;;;;;5049968;28;19962;-75
2022/01/02 09:33:33;;;;;;;;;;;4.20;95.70;;;;;;5049244;28;19904;-75
2022/01/02 09:35:59;;;;;;;;;;;3.90;98.10;;;;;;5049149;28;19912;-74
2022/01/02 09:38:25;;;;;;;;;;;3.50;98.80;;;;;;5048486;28;19920;-74
2022/01/02 09:40:51;;;;;;;;;;;3.30;99.90;;;;;;5048054;28;20377;-74
2022/01/02 09:43:17;;;;;;;;;;;3.00;99.50;;;;;;5050215;28;20003;-74
2022/01/02 09:45:47;;;;;;;;;;;2.90;99.90;;;;;;5048522;28;19909;-76
2022/01/02 09:48:12;;;;;;;;;;;3.00;99.90;;;;;;5049267;28;20426;-77
2022/01/02 09:50:39;;;;;;;;;;;3.00;99.90;;;;;;5049843;28;19908;-75
2022/01/02 09:53:05;;;;;;;;;;;3.00;99.10;;;;;;5050491;28;19940;-75
2022/01/02 09:55:30;;;;;;;;;;;2.90;98.70;;;;;;5048177;28;19916;-75
2022/01/02 09:57:59;;;;;;;;;;;3.00;99.90;;;;;;5049062;28;20323;-75
2022/01/02 10:00:25;;;;;;;;;;;3.00;99.00;;;;;;5049305;28;20011;-74
2022/01/02 10:02:58;;;;;;;;;;;2.90;98.70;;;;;;5050512;28;19916;-74
2022/01/02 10:05:26;;;;;;;;;;;3.00;99.30;;;;;;5049719;28;19952;-74
2022/01/02 10:07:52;;;;;;;;;;;3.30;98.00;;;;;;5048603;28;20361;-75
2022/01/02 10:10:18;;;;;;;;;;;3.60;98.50;;;;;;5049086;28;19947;-74
2022/01/02 10:12:43;;;;;;;;;;;3.50;96.20;;;;;;5049955;28;19944;-75
2022/01/02 10:15:09;;;;;;;;;;;3.50;95.50;;;;;;5048523;28;19970;-75
2022/01/02 10:17:56;;;;;;;;;;;3.60;96.60;;;;;;5050137;28;19917;-75
2022/01/02 10:20:23;;;;;;;;;;;3.50;94.70;;;;;;5047371;28;19923;-76
2022/01/02 10:23:07;;;;;;;;;;;3.30;96.40;;;;;;5048445;28;20409;-76
2022/01/02 10:25:36;;;;;;;;;;;3.40;97.00;;;;;;5048456;28;20416;-76
2022/01/02 10:28:16;;;;;;;;;;;3.50;96.10;;;;;;5048487;28;20260;-76
2022/01/02 10:30:48;;;;;;;;;;;3.70;96.80;;;;;;5049190;28;19995;-76
2022/01/02 10:33:14;;;;;;;;;;;3.50;96.80;;;;;;5050329;28;19909;-76
2022/01/02 10:35:41;;;;;;;;;;;3.30;96.20;;;;;;5031559;28;20360;-76
2022/01/02 10:38:13;;;;;;;;;;;3.10;96.00;;;;;;5050202;28;19966;-76
2022/01/02 10:40:38;;;;;;;;;;;3.00;95.80;;;;;;5049580;28;19920;-75
2022/01/02 10:43:24;;;;;;;;;;;2.80;96.20;;;;;;5069621;28;20356;-76
2022/01/02 10:45:50;;;;;;;;;;;2.90;95.70;;;;;;5051427;28;20391;-76
2022/01/02 10:48:18;;;;;;;;;;;3.10;95.30;;;;;;5053866;28;20069;-75
2022/01/02 10:51:00;;;;;;;;;;;3.30;95.90;;;;;;5054815;28;19942;-75
2022/01/02 10:53:26;;;;;;;;;;;3.40;92.80;;;;;;5055771;28;19920;-75
2022/01/02 10:55:52;;;;;;;;;;;3.30;94.90;;;;;;5049086;28;20860;-76
2022/01/02 10:58:18;;;;;;;;;;;3.10;95.60;;;;;;5034863;28;19924;-75
2022/01/02 11:00:44;;;;;;;;;;;3.10;95.00;;;;;;5057171;28;19908;-74
2022/01/02 11:03:12;;;;;;;;;;;3.20;92.90;;;;;;5072915;28;19924;-74
2022/01/02 11:05:39;;;;;;;;;;;3.10;94.90;;;;;;5072582;28;19965;-75
2022/01/02 11:08:05;;;;;;;;;;;2.80;92.70;;;;;;5072824;28;20011;-75
2022/01/02 11:10:32;;;;;;;;;;;2.70;95.50;;;;;;5072338;28;19927;-76
2022/01/02 11:12:58;;;;;;;;;;;2.80;96.00;;;;;;5072895;28;20367;-74
2022/01/02 11:15:27;;;;;;;;;;;2.90;93.00;;;;;;5054436;28;19915;-75
2022/01/02 11:17:53;;;;;;;;;;;3.20;93.50;;;;;;5054673;28;19972;-74
2022/01/02 11:20:23;;;;;;;;;;;3.00;94.60;;;;;;5071286;28;20050;-75
2022/01/02 11:22:52;;;;;;;;;;;2.80;94.70;;;;;;5072253;28;19910;-74
2022/01/02 11:25:29;;;;;;;;;;;2.80;94.30;;;;;;5072227;28;19966;-75
2022/01/02 11:27:58;;;;;;;;;;;3.10;93.60;;;;;;5054310;28;19912;-74
2022/01/02 11:30:30;;;;;;;;;;;3.60;94.70;;;;;;5053027;28;19904;-76
2022/01/02 11:33:12;;;;;;;;;;;3.90;93.90;;;;;;5054273;28;20267;-75
2022/01/02 11:35:39;;;;;;;;;;;4.30;92.40;;;;;;5049749;28;19912;-75
2022/01/02 11:38:06;;;;;;;;;;;5.30;89.00;;;;;;5051500;28;20478;-74
2022/01/02 11:40:51;;;;;;;;;;;6.00;85.60;;;;;;5055327;28;20387;-75
2022/01/02 11:43:35;;;;;;;;;;;6.10;86.70;;;;;;5072503;28;20345;-76
2022/01/02 11:46:20;;;;;;;;;;;6.20;86.40;;;;;;5046933;28;19911;-77
2022/01/02 11:49:15;;;;;;;;;;;6.40;85.40;;;;;;5051940;28;19916;-76
2022/01/02 11:51:47;;;;;;;;;;;6.50;83.40;;;;;;5064437;28;19908;-76
2022/01/02 11:54:28;;;;;;;;;;;6.60;79.80;;;;;;5072364;28;19924;-75
2022/01/02 11:56:54;;;;;;;;;;;6.50;77.60;;;;;;5053419;28;19912;-74
2022/01/02 11:59:38;;;;;;;;;;;6.70;77.70;;;;;;5072019;28;19913;-75
2022/01/02 12:02:29;;;;;;;;;;;6.50;76.60;;;;;;5071449;28;19909;-75
2022/01/02 12:07:32;;;;;;;;;;;5.90;78.60;;;;;;5071719;28;19908;-75
2022/01/02 12:10:13;;;;;;;;;;;5.60;78.40;;;;;;5053249;28;19920;-75
2022/01/02 12:12:57;;;;;;;;;;;5.40;79.40;;;;;;5071695;28;19947;-75
2022/01/02 12:15:32;;;;;;;;;;;5.20;79.20;;;;;;5072068;28;19921;-75
2022/01/02 12:18:19;;;;;;;;;;;4.70;81.10;;;;;;5053837;28;20379;-75
2022/01/02 12:20:56;;;;;;;;;;;4.00;81.20;;;;;;5071382;28;19908;-76
2022/01/02 12:23:34;;;;;;;;;;;3.20;82.70;;;;;;5053096;28;19917;-75
2022/01/02 12:26:15;;;;;;;;;;;2.60;84.80;;;;;;5053133;28;19911;-74
2022/01/02 12:28:50;;;;;;;;;;;2.30;85.80;;;;;;5052780;28;20360;-74
2022/01/02 12:31:18;;;;;;;;;;;2.10;86.70;;;;;;5052739;28;19908;-74
2022/01/02 12:33:44;;;;;;;;;;;2.00;87.70;;;;;;5053069;28;20344;-75
2022/01/02 12:36:20;;;;;;;;;;;2.00;89.80;;;;;;5053006;28;19908;-74
2022/01/02 12:38:46;;;;;;;;;;;1.80;90.10;;;;;;5052791;28;20296;-74
2022/01/02 12:41:16;;;;;;;;;;;1.70;90.40;;;;;;5052566;28;19927;-74
2022/01/02 12:43:57;;;;;;;;;;;1.70;90.30;;;;;;5070858;28;20015;-74
2022/01/02 12:46:35;;;;;;;;;;;1.70;90.40;;;;;;5052472;28;19908;-75
2022/01/02 12:49:01;;;;;;;;;;;1.70;91.40;;;;;;5052625;28;20279;-75
2022/01/02 12:51:31;;;;;;;;;;;1.50;91.00;;;;;;5070705;28;19908;-75
2022/01/02 12:54:07;;;;;;;;;;;1.40;90.30;;;;;;5052720;28;19922;-74
2022/01/02 12:56:34;;;;;;;;;;;1.40;90.20;;;;;;5070711;28;19916;-75
2022/01/02 12:59:14;;;;;;;;;;;1.40;90.50;;;;;;5070632;28;19939;-76
2022/01/02 13:01:54;;;;;;;;;;;1.40;90.80;;;;;;5052698;28;20253;-74
2022/01/02 13:04:22;;;;;;;;;;;1.30;90.90;;;;;;5052574;28;20405;-75
2022/01/02 13:06:48;;;;;;;;;;;1.20;90.40;;;;;;5052337;28;19989;-75
2022/01/02 13:09:27;;;;;;;;;;;1.20;91.20;;;;;;5051888;28;19912;-75
2022/01/02 13:11:53;;;;;;;;;;;1.20;91.50;;;;;;5070023;28;20409;-75
2022/01/02 13:14:28;;;;;;;;;;;1.10;92.60;;;;;;5052251;28;19920;-75
2022/01/02 13:16:54;;;;;;;;;;;1.10;92.00;;;;;;5070156;28;19912;-74
2022/01/02 13:19:20;;;;;;;;;;;1.00;92.10;;;;;;5052415;28;20109;-75
2022/01/02 13:21:45;;;;;;;;;;;1.00;92.40;;;;;;5051983;28;19905;-75
2022/01/02 13:24:28;;;;;;;;;;;1.10;92.20;;;;;;5052265;28;19912;-74
2022/01/02 13:26:53;;;;;;;;;;;1.10;92.20;;;;;;5037616;28;19908;-75
2022/01/02 13:29:23;;;;;;;;;;;1.00;92.10;;;;;;5031905;28;19971;-75
2022/01/02 13:31:49;;;;;;;;;;;1.00;91.60;;;;;;5063661;28;20360;-75
2022/01/02 13:34:22;;;;;;;;;;;1.00;91.50;;;;;;5069749;28;19939;-75
2022/01/02 13:36:57;;;;;;;;;;;1.10;92.20;;;;;;5069878;28;20400;-75
2022/01/02 13:39:38;;;;;;;;;;;1.10;92.20;;;;;;5069188;28;20414;-74
2022/01/02 13:42:04;;;;;;;;;;;1.10;92.70;;;;;;5035451;28;20411;-74
2022/01/02 13:44:40;;;;;;;;;;;1.10;92.60;;;;;;5050332;28;20020;-75
2022/01/02 13:47:06;;;;;;;;;;;1.10;92.80;;;;;;5065842;28;19915;-74
2022/01/02 13:49:38;;;;;;;;;;;1.00;92.20;;;;;;5069707;28;19917;-74
2022/01/02 13:52:04;;;;;;;;;;;1.00;91.20;;;;;;5069680;28;19915;-74
2022/01/02 13:54:29;;;;;;;;;;;1.00;90.50;;;;;;5070243;28;19912;-75
2022/01/02 13:56:56;;;;;;;;;;;1.10;92.00;;;;;;5069258;28;20374;-75
2022/01/02 13:59:25;;;;;;;;;;;1.10;91.50;;;;;;5069760;28;20348;-75
2022/01/02 14:01:51;;;;;;;;;;;1.00;92.50;;;;;;5051500;28;19905;-75
2022/01/02 14:04:17;;;;;;;;;;;0.90;93.20;;;;;;5069386;28;19919;-74
2022/01/02 14:06:42;;;;;;;;;;;1.00;93.20;;;;;;5070095;28;19909;-74
2022/01/02 14:09:09;;;;;;;;;;;1.00;93.20;;;;;;5051137;28;19935;-75
2022/01/02 14:11:37;;;;;;;;;;;1.10;92.90;;;;;;5069748;28;19909;-75
2022/01/02 14:14:06;;;;;;;;;;;1.10;92.40;;;;;;5051520;28;19955;-74
2022/01/02 14:16:58;;;;;;;;;;;1.20;91.90;;;;;;5069305;28;20253;-74
2022/01/02 14:19:24;;;;;;;;;;;1.20;92.60;;;;;;5051220;28;19932;-74
2022/01/02 14:21:50;;;;;;;;;;;1.20;92.00;;;;;;5071343;28;20006;-75
2022/01/02 14:24:15;;;;;;;;;;;1.20;92.10;;;;;;5073838;28;19962;-75
2022/01/02 14:26:41;;;;;;;;;;;1.20;93.20;;;;;;5073362;28;19951;-75
2022/01/02 14:29:06;;;;;;;;;;;1.20;93.80;;;;;;5054866;28;19924;-75
2022/01/02 14:31:32;;;;;;;;;;;1.20;93.70;;;;;;5054885;28;19953;-75
2022/01/02 14:33:59;;;;;;;;;;;1.20;94.30;;;;;;5073187;28;19913;-75
2022/01/02 14:36:24;;;;;;;;;;;1.20;94.80;;;;;;5054739;28;20399;-75
2022/01/02 14:38:50;;;;;;;;;;;1.10;95.30;;;;;;5073122;28;19912;-74
2022/01/02 14:41:19;;;;;;;;;;;1.00;95.50;;;;;;5063421;28;20399;-74